Time;durP1;ratioP1;P1;durP2;ratioP2;P2;SDS_P1;SDS_P2;PMS_P1;PMS_P2;Temp;Humidity;BMP_temperature;BMP_pressure;BME280_temperature;BME280_humidity;BME280_pressure;Samples;Min_cycle;Max_cycle;Signal;HPM_P1;HPM_P2
2021/07/04 00:00:40;;;;;;;5.93;2.85;;;16.00;99.90;;;;;;5009929;28;20029;-78
2021/07/04 00:03:06;;;;;;;10.10;3.08;;;15.90;99.90;;;;;;5008246;28;20125;-78
2021/07/04 00:05:35;;;;;;;6.43;3.28;;;15.90;99.90;;;;;;5009712;28;20060;-78
2021/07/04 00:08:02;;;;;;;6.78;3.22;;;15.90;99.90;;;;;;5007609;28;20533;-78
2021/07/04 00:10:31;;;;;;;5.85;4.00;;;15.90;99.90;;;;;;5009563;28;20030;-78
2021/07/04 00:12:57;;;;;;;7.03;3.63;;;15.80;99.90;;;;;;5007634;28;20376;-78
2021/07/04 00:15:25;;;;;;;6.25;3.38;;;15.80;99.90;;;;;;5008061;28;20033;-78
2021/07/04 00:17:51;;;;;;;5.72;2.97;;;15.90;99.90;;;;;;5005117;28;20052;-78
2021/07/04 00:20:19;;;;;;;7.65;2.55;;;16.00;99.90;;;;;;4989908;28;20038;-78
2021/07/04 00:22:45;;;;;;;6.78;2.55;;;16.00;99.90;;;;;;4989792;28;20045;-78
2021/07/04 00:25:13;;;;;;;3.03;1.40;;;16.00;99.90;;;;;;5007499;28;20037;-78
2021/07/04 00:27:40;;;;;;;7.57;1.45;;;16.00;99.90;;;;;;5012334;28;20088;-78
2021/07/04 00:30:07;;;;;;;13.45;2.13;;;16.10;99.90;;;;;;5012910;28;20114;-78
2021/07/04 00:32:33;;;;;;;6.55;1.40;;;16.10;99.90;;;;;;5013755;28;20169;-78
2021/07/04 00:34:59;;;;;;;6.70;1.17;;;16.00;99.90;;;;;;4999615;28;20113;-78
2021/07/04 00:37:25;;;;;;;5.70;1.65;;;16.00;99.90;;;;;;4994166;28;20054;-78
2021/07/04 00:39:50;;;;;;;3.72;1.33;;;15.90;99.90;;;;;;4992762;28;20054;-78
2021/07/04 00:42:16;;;;;;;4.82;2.20;;;15.90;99.90;;;;;;4993679;28;20123;-78
2021/07/04 00:44:42;;;;;;;8.35;2.42;;;15.90;99.90;;;;;;5001187;28;20022;-78
2021/07/04 00:47:08;;;;;;;6.50;2.92;;;15.90;99.90;;;;;;5013557;28;20045;-78
2021/07/04 00:49:33;;;;;;;7.75;3.47;;;15.90;99.90;;;;;;5012558;28;20124;-78
2021/07/04 00:52:00;;;;;;;6.28;2.70;;;15.90;99.90;;;;;;5012009;28;20048;-78
2021/07/04 00:54:27;;;;;;;7.32;2.97;;;15.90;99.90;;;;;;4999760;28;20034;-78
2021/07/04 00:56:53;;;;;;;5.80;2.75;;;15.90;99.90;;;;;;5012918;28;20048;-78
2021/07/04 00:59:20;;;;;;;7.32;3.30;;;15.90;99.90;;;;;;5012092;28;20030;-78
2021/07/04 01:01:47;;;;;;;5.38;2.97;;;16.00;99.90;;;;;;4993660;28;20042;-78
2021/07/04 01:04:12;;;;;;;9.63;2.90;;;16.00;99.90;;;;;;5008082;28;20601;-78
2021/07/04 01:06:40;;;;;;;6.35;2.72;;;16.00;99.90;;;;;;5011564;28;20049;-78
2021/07/04 01:09:07;;;;;;;3.80;1.98;;;16.00;99.90;;;;;;4999948;28;20058;-78
2021/07/04 01:11:33;;;;;;;4.40;2.20;;;16.10;99.90;;;;;;5009611;28;20042;-78
2021/07/04 01:13:59;;;;;;;6.10;1.80;;;16.20;99.90;;;;;;5012290;28;20037;-78
2021/07/04 01:16:25;;;;;;;5.68;1.73;;;16.20;99.90;;;;;;5012563;28;20046;-78
2021/07/04 01:18:52;;;;;;;3.78;1.30;;;16.20;99.90;;;;;;5012516;28;20034;-78
2021/07/04 01:21:20;;;;;;;3.13;1.30;;;16.30;99.90;;;;;;5012106;28;20030;-78
2021/07/04 01:23:46;;;;;;;3.75;1.50;;;16.30;99.90;;;;;;5012483;28;20022;-78
2021/07/04 01:26:11;;;;;;;5.63;1.40;;;16.30;99.90;;;;;;5011269;28;20476;-78
2021/07/04 01:28:37;;;;;;;7.85;1.50;;;16.40;99.90;;;;;;5007572;28;20380;-78
2021/07/04 01:31:03;;;;;;;6.78;1.23;;;16.30;99.90;;;;;;4992803;28;20034;-78
2021/07/04 01:33:30;;;;;;;7.80;1.42;;;16.20;99.90;;;;;;4992456;28;20422;-78
2021/07/04 01:35:56;;;;;;;4.45;1.67;;;16.20;99.90;;;;;;4991801;28;20113;-78
2021/07/04 01:38:22;;;;;;;5.85;1.23;;;16.10;99.90;;;;;;5006019;28;20033;-78
2021/07/04 01:40:48;;;;;;;7.97;1.45;;;16.20;99.90;;;;;;5006513;28;20361;-77
2021/07/04 01:43:14;;;;;;;5.80;1.50;;;16.20;99.90;;;;;;5012268;28;20037;-78
2021/07/04 01:45:40;;;;;;;7.95;2.13;;;16.10;99.90;;;;;;5010831;28;20038;-78
2021/07/04 01:48:07;;;;;;;7.38;1.80;;;16.10;99.90;;;;;;5010648;28;20038;-78
2021/07/04 01:50:36;;;;;;;5.68;1.80;;;16.20;99.90;;;;;;5011947;28;20049;-78
2021/07/04 01:53:03;;;;;;;6.05;1.77;;;16.10;99.90;;;;;;4991336;28;20042;-78
2021/07/04 01:55:29;;;;;;;8.15;2.13;;;16.20;99.90;;;;;;5023584;28;20088;-77
2021/07/04 01:57:56;;;;;;;5.35;1.80;;;16.20;99.90;;;;;;4991528;28;20062;-78
2021/07/04 02:00:29;;;;;;;5.68;1.95;;;16.10;99.90;;;;;;4991457;28;20134;-78
2021/07/04 02:02:58;;;;;;;6.40;1.60;;;16.10;99.90;;;;;;5008377;28;20026;-78
2021/07/04 02:05:24;;;;;;;4.25;1.60;;;16.10;99.90;;;;;;5011754;28;20026;-78
2021/07/04 02:07:50;;;;;;;6.07;2.10;;;16.10;99.90;;;;;;5011547;28;20030;-78
2021/07/04 02:10:23;;;;;;;5.07;2.00;;;16.20;99.90;;;;;;5009866;28;20036;-78
2021/07/04 02:12:49;;;;;;;5.68;2.45;;;16.10;99.90;;;;;;5011475;28;20424;-78
2021/07/04 02:15:20;;;;;;;12.25;2.00;;;16.10;99.90;;;;;;5011848;28;20172;-78
2021/07/04 02:17:47;;;;;;;4.60;1.73;;;16.00;99.90;;;;;;5000943;28;20157;-78
2021/07/04 02:20:33;;;;;;;5.07;1.60;;;16.10;99.90;;;;;;4991433;28;20034;-78
2021/07/04 02:23:11;;;;;;;5.22;2.08;;;16.10;99.90;;;;;;5009870;28;20369;-78
2021/07/04 02:25:38;;;;;;;7.50;2.00;;;16.20;99.90;;;;;;5010744;28;20080;-78
2021/07/04 02:28:05;;;;;;;6.47;1.92;;;16.10;99.90;;;;;;5000833;28;20516;-78
2021/07/04 02:30:31;;;;;;;5.43;1.80;;;16.00;99.90;;;;;;4991788;28;20099;-78
2021/07/04 02:33:01;;;;;;;7.97;2.33;;;16.00;99.90;;;;;;4994408;28;20152;-78
2021/07/04 02:35:26;;;;;;;7.55;1.90;;;16.00;99.90;;;;;;4992105;28;20087;-78
2021/07/04 02:37:52;;;;;;;6.35;1.58;;;16.00;99.90;;;;;;5003494;28;20566;-78
2021/07/04 02:40:18;;;;;;;7.10;2.00;;;16.00;99.90;;;;;;5009415;28;20051;-78
2021/07/04 02:42:43;;;;;;;6.53;1.60;;;15.90;99.90;;;;;;5000995;28;20065;-78
2021/07/04 02:45:10;;;;;;;6.07;1.50;;;15.90;99.90;;;;;;4991185;28;20049;-78
2021/07/04 02:47:35;;;;;;;11.18;1.50;;;15.90;99.90;;;;;;5009629;28;20030;-78
2021/07/04 02:50:02;;;;;;;5.47;1.25;;;15.90;99.90;;;;;;4990922;28;20038;-78
2021/07/04 02:52:28;;;;;;;3.08;1.08;;;15.90;99.90;;;;;;4995867;28;20037;-78
2021/07/04 02:54:53;;;;;;;3.35;1.30;;;15.90;99.90;;;;;;4991307;28;20034;-78
2021/07/04 02:57:19;;;;;;;4.60;2.17;;;15.90;99.90;;;;;;4990326;28;20054;-78
2021/07/04 02:59:45;;;;;;;8.95;1.88;;;15.90;99.90;;;;;;4990649;28;20451;-78
2021/07/04 03:02:10;;;;;;;5.25;1.80;;;15.80;99.90;;;;;;4990817;28;20039;-78
2021/07/04 03:04:36;;;;;;;2.30;1.08;;;15.80;99.90;;;;;;5009053;28;20029;-78
2021/07/04 03:07:02;;;;;;;8.88;1.67;;;15.90;99.90;;;;;;5010483;28;20039;-78
2021/07/04 03:09:27;;;;;;;8.15;1.67;;;15.90;99.90;;;;;;5000210;28;20106;-78
2021/07/04 03:11:55;;;;;;;2.97;1.60;;;15.90;99.90;;;;;;5010325;28;20041;-78
2021/07/04 03:14:21;;;;;;;4.60;2.00;;;15.90;99.90;;;;;;5005503;28;20574;-78
2021/07/04 03:16:47;;;;;;;4.40;1.70;;;15.90;99.90;;;;;;4990815;28;20034;-78
2021/07/04 03:19:14;;;;;;;5.55;1.60;;;15.90;99.90;;;;;;4990263;28;20141;-78
2021/07/04 03:21:39;;;;;;;5.18;1.42;;;15.90;99.90;;;;;;5010149;28;20029;-77
2021/07/04 03:24:05;;;;;;;4.53;1.60;;;15.80;99.90;;;;;;5008732;28;20034;-77
2021/07/04 03:26:31;;;;;;;3.78;1.52;;;15.80;99.90;;;;;;5009659;28;20563;-78
2021/07/04 03:28:56;;;;;;;7.30;1.85;;;15.80;99.90;;;;;;5005200;28;20034;-78
2021/07/04 03:31:22;;;;;;;8.77;1.30;;;15.80;99.90;;;;;;4991001;28;20132;-78
2021/07/04 03:33:48;;;;;;;4.45;1.10;;;15.90;99.90;;;;;;4992230;28;20039;-78
2021/07/04 03:36:13;;;;;;;10.60;1.75;;;15.90;99.90;;;;;;5007382;28;20068;-78
2021/07/04 03:38:39;;;;;;;4.50;1.10;;;15.80;99.90;;;;;;5000427;28;20058;-78
2021/07/04 03:41:05;;;;;;;3.22;1.17;;;15.80;99.90;;;;;;4999812;28;20029;-78
2021/07/04 03:43:31;;;;;;;5.20;1.45;;;15.70;99.90;;;;;;5009946;28;20499;-78
2021/07/04 03:45:56;;;;;;;5.78;1.38;;;15.70;99.90;;;;;;5008261;28;20040;-78
2021/07/04 03:48:22;;;;;;;4.55;2.10;;;15.70;99.90;;;;;;5041819;28;20075;-78
2021/07/04 03:50:48;;;;;;;3.75;1.70;;;15.70;99.90;;;;;;5005024;28;20030;-78
2021/07/04 03:53:13;;;;;;;4.05;2.10;;;15.70;99.90;;;;;;4990043;28;20049;-78
2021/07/04 03:55:39;;;;;;;8.90;1.70;;;15.70;99.90;;;;;;5007987;28;20386;-78
2021/07/04 03:58:05;;;;;;;5.82;1.63;;;15.70;99.90;;;;;;5008795;28;20062;-78
2021/07/04 04:00:31;;;;;;;7.68;2.10;;;15.60;99.90;;;;;;5000492;28;20080;-77
2021/07/04 04:02:56;;;;;;;4.38;2.00;;;15.60;99.90;;;;;;5009317;28;20587;-78
2021/07/04 04:05:22;;;;;;;6.38;2.47;;;15.60;99.90;;;;;;4994572;28;20663;-78
2021/07/04 04:07:47;;;;;;;5.72;2.00;;;15.60;99.90;;;;;;5031365;28;20034;-78
2021/07/04 04:10:14;;;;;;;3.15;1.83;;;15.50;99.90;;;;;;4995640;28;20031;-78
2021/07/04 04:12:40;;;;;;;5.32;1.65;;;15.60;99.90;;;;;;5005021;28;20038;-78
2021/07/04 04:15:10;;;;;;;6.05;1.70;;;15.60;99.90;;;;;;5007751;28;20129;-78
2021/07/04 04:17:36;;;;;;;3.65;1.13;;;15.60;99.90;;;;;;5008639;28;20045;-78
2021/07/04 04:20:04;;;;;;;4.45;1.23;;;15.60;99.90;;;;;;5007948;28;20045;-78
2021/07/04 04:22:29;;;;;;;2.72;1.02;;;15.70;99.90;;;;;;5008860;28;20041;-78
2021/07/04 04:24:55;;;;;;;5.22;1.08;;;15.70;99.90;;;;;;5009393;28;20030;-78
2021/07/04 04:27:21;;;;;;;5.43;1.42;;;15.80;99.90;;;;;;4997346;28;20038;-78
2021/07/04 04:29:47;;;;;;;6.13;1.50;;;15.70;99.90;;;;;;4989260;28;20030;-78
2021/07/04 04:32:12;;;;;;;7.63;1.67;;;15.70;99.90;;;;;;4996405;28;20683;-78
2021/07/04 04:34:38;;;;;;;3.40;1.35;;;15.60;99.90;;;;;;5000211;28;20037;-78
2021/07/04 04:37:04;;;;;;;3.70;1.60;;;15.60;99.90;;;;;;4993286;28;20026;-78
2021/07/04 04:39:31;;;;;;;5.63;2.22;;;15.60;99.90;;;;;;5007521;28;20037;-78
2021/07/04 04:41:56;;;;;;;6.30;2.10;;;15.60;99.90;;;;;;5006091;28;20464;-77
2021/07/04 04:44:22;;;;;;;3.70;1.50;;;15.70;99.90;;;;;;4989409;28;20038;-78
2021/07/04 04:46:48;;;;;;;4.55;1.92;;;15.70;99.90;;;;;;4992166;28;20872;-78
2021/07/04 04:49:13;;;;;;;4.28;1.40;;;15.60;99.90;;;;;;5000993;28;20121;-78
2021/07/04 04:51:40;;;;;;;4.50;1.58;;;15.70;99.90;;;;;;5007432;28;20391;-78
2021/07/04 04:54:06;;;;;;;6.50;2.10;;;15.70;99.90;;;;;;4998870;28;20114;-78
2021/07/04 04:56:32;;;;;;;4.18;2.08;;;15.70;99.90;;;;;;5003558;28;20034;-78
2021/07/04 04:58:58;;;;;;;5.85;2.10;;;15.70;99.90;;;;;;4992055;28;20069;-78
2021/07/04 05:01:26;;;;;;;5.07;1.80;;;15.70;99.90;;;;;;5004585;28;20464;-78
2021/07/04 05:03:52;;;;;;;6.15;2.05;;;16.20;99.90;;;;;;5004358;28;20618;-78
2021/07/04 05:06:18;;;;;;;8.90;2.50;;;16.40;99.90;;;;;;5008531;28;20129;-77
2021/07/04 05:08:44;;;;;;;3.70;1.40;;;16.70;99.90;;;;;;5006971;28;20684;-78
2021/07/04 05:11:10;;;;;;;6.70;1.30;;;17.00;99.90;;;;;;5007643;28;20030;-78
2021/07/04 05:13:36;;;;;;;2.63;1.58;;;17.30;99.90;;;;;;5011078;28;20570;-78
2021/07/04 05:16:02;;;;;;;4.40;1.15;;;17.40;99.90;;;;;;5012285;28;20049;-78
2021/07/04 05:18:28;;;;;;;5.60;1.10;;;17.70;99.90;;;;;;5011392;28;20030;-78
2021/07/04 05:20:53;;;;;;;3.28;1.48;;;17.90;99.90;;;;;;4991603;28;20041;-78
2021/07/04 05:23:19;;;;;;;4.47;1.33;;;18.10;99.90;;;;;;5003962;28;20022;-78
2021/07/04 05:25:45;;;;;;;2.20;1.13;;;18.10;99.90;;;;;;5002431;28;20044;-77
2021/07/04 05:28:10;;;;;;;4.72;1.13;;;17.50;99.90;;;;;;5003282;28;20042;-78
2021/07/04 05:30:36;;;;;;;3.85;1.40;;;17.50;99.90;;;;;;5003826;28;20105;-78
2021/07/04 05:33:02;;;;;;;4.82;1.42;;;17.50;99.90;;;;;;5033065;28;20145;-78
2021/07/04 05:35:28;;;;;;;8.00;1.33;;;17.60;99.90;;;;;;5003221;28;20030;-78
2021/07/04 05:37:54;;;;;;;3.50;1.52;;;17.80;99.90;;;;;;5011255;28;20030;-78
2021/07/04 05:40:19;;;;;;;2.58;0.90;;;18.10;99.90;;;;;;5006462;28;20125;-78
2021/07/04 05:42:45;;;;;;;4.32;2.03;;;18.20;99.90;;;;;;5012183;28;20713;-78
2021/07/04 05:45:23;;;;;;;6.22;1.35;;;18.30;99.90;;;;;;5006622;28;20033;-78
2021/07/04 05:47:48;;;;;;;5.80;1.55;;;18.30;99.90;;;;;;4992742;28;20078;-78
2021/07/04 05:50:14;;;;;;;5.63;1.15;;;18.30;99.90;;;;;;5004048;28;20419;-78
2021/07/04 05:52:40;;;;;;;5.30;1.20;;;18.30;99.90;;;;;;5003113;28;20038;-78
2021/07/04 05:55:06;;;;;;;7.00;1.10;;;18.40;99.90;;;;;;5001125;28;20052;-78
2021/07/04 05:57:32;;;;;;;4.85;1.33;;;18.40;99.90;;;;;;5003701;28;20058;-78
2021/07/04 05:59:57;;;;;;;3.97;1.30;;;18.30;99.90;;;;;;4998574;28;20431;-78
2021/07/04 06:02:23;;;;;;;5.60;2.05;;;18.20;99.90;;;;;;4997617;28;20038;-78
2021/07/04 06:04:48;;;;;;;3.75;1.70;;;18.20;99.90;;;;;;5011108;28;20029;-78
2021/07/04 06:07:14;;;;;;;5.28;1.42;;;17.90;99.90;;;;;;5011122;28;20034;-78
2021/07/04 06:09:40;;;;;;;3.72;1.40;;;17.70;99.90;;;;;;5008088;28;20038;-78
2021/07/04 06:12:06;;;;;;;2.97;1.40;;;17.60;99.90;;;;;;5003983;28;20116;-78
2021/07/04 06:14:32;;;;;;;3.60;1.73;;;17.70;99.90;;;;;;4999989;28;20038;-78
2021/07/04 06:16:57;;;;;;;4.53;2.03;;;17.70;99.90;;;;;;5004589;28;20092;-78
2021/07/04 06:19:23;;;;;;;4.30;1.70;;;17.70;99.90;;;;;;5003053;28;20433;-78
2021/07/04 06:21:48;;;;;;;5.38;2.15;;;17.60;99.90;;;;;;5000227;28;20053;-77
2021/07/04 06:24:14;;;;;;;4.22;2.15;;;17.70;99.90;;;;;;5008958;28;20076;-78
2021/07/04 06:26:40;;;;;;;5.93;2.97;;;17.60;99.90;;;;;;5007742;28;21019;-77
2021/07/04 06:29:05;;;;;;;7.25;3.53;;;17.50;99.90;;;;;;5001425;28;20034;-78
2021/07/04 06:31:31;;;;;;;6.75;2.90;;;17.50;99.90;;;;;;4996841;28;20093;-78
2021/07/04 06:33:57;;;;;;;7.22;2.83;;;17.50;99.90;;;;;;5006013;28;20045;-78
2021/07/04 06:36:25;;;;;;;5.05;1.58;;;17.40;99.90;;;;;;5002552;28;20950;-78
2021/07/04 06:38:51;;;;;;;2.30;1.40;;;17.40;99.90;;;;;;5018382;28;20042;-78
2021/07/04 06:41:16;;;;;;;3.60;1.30;;;17.50;99.90;;;;;;5006522;28;20091;-78
2021/07/04 06:43:42;;;;;;;6.18;1.55;;;17.50;99.90;;;;;;5005998;28;20241;-78
2021/07/04 06:46:08;;;;;;;4.20;1.20;;;17.60;99.90;;;;;;5006696;28;20048;-78
2021/07/04 06:48:34;;;;;;;3.42;1.67;;;17.60;99.90;;;;;;5007419;28;20022;-78
2021/07/04 06:51:00;;;;;;;6.28;1.60;;;17.60;99.90;;;;;;5003411;28;20029;-78
2021/07/04 06:53:25;;;;;;;5.50;1.83;;;17.60;99.90;;;;;;5010870;28;20071;-78
2021/07/04 06:55:51;;;;;;;7.68;1.77;;;17.70;99.90;;;;;;5009940;28;20030;-78
2021/07/04 06:58:17;;;;;;;4.22;2.15;;;17.60;99.90;;;;;;5007807;28;20062;-78
2021/07/04 07:00:42;;;;;;;5.68;1.98;;;17.60;99.90;;;;;;5008251;28;20026;-78
2021/07/04 07:03:08;;;;;;;6.05;2.70;;;17.70;99.90;;;;;;5017458;28;20037;-78
2021/07/04 07:05:34;;;;;;;3.20;1.90;;;17.70;99.90;;;;;;5040440;28;20184;-78
2021/07/04 07:07:59;;;;;;;8.60;2.65;;;17.70;99.90;;;;;;5008230;28;20076;-78
2021/07/04 07:10:25;;;;;;;3.83;1.50;;;17.80;99.90;;;;;;5001820;28;20108;-78
2021/07/04 07:12:50;;;;;;;2.53;1.15;;;17.90;99.90;;;;;;5005270;28;20034;-78
2021/07/04 07:15:16;;;;;;;3.50;1.05;;;17.90;99.90;;;;;;5013151;28;20045;-78
2021/07/04 07:17:42;;;;;;;4.07;1.02;;;17.80;99.90;;;;;;5001082;28;20161;-78
2021/07/04 07:20:08;;;;;;;5.47;0.80;;;17.80;99.90;;;;;;5003516;28;20733;-77
2021/07/04 07:22:35;;;;;;;5.05;1.30;;;17.60;99.90;;;;;;4998692;28;20773;-78
2021/07/04 07:25:00;;;;;;;8.93;1.30;;;17.60;99.90;;;;;;5010823;28;20026;-77
2021/07/04 07:27:26;;;;;;;3.08;1.27;;;17.50;99.90;;;;;;5004997;28;20117;-77
2021/07/04 07:29:52;;;;;;;3.13;1.20;;;17.50;99.90;;;;;;5006408;28;20561;-77
2021/07/04 07:32:17;;;;;;;6.22;1.40;;;17.40;99.90;;;;;;5007318;28;20042;-78
2021/07/04 07:34:43;;;;;;;5.57;0.88;;;17.50;99.90;;;;;;5006772;28;20455;-77
2021/07/04 07:37:09;;;;;;;5.63;1.00;;;17.50;99.90;;;;;;5008294;28;20029;-78
2021/07/04 07:39:34;;;;;;;3.83;1.05;;;17.60;99.90;;;;;;5011489;28;20081;-77
2021/07/04 07:42:00;;;;;;;4.43;1.10;;;17.70;99.90;;;;;;5013084;28;20026;-77
2021/07/04 07:44:26;;;;;;;2.78;1.25;;;17.70;99.90;;;;;;5009354;28;20064;-77
2021/07/04 07:46:51;;;;;;;4.03;1.42;;;17.80;99.90;;;;;;5012871;28;20622;-77
2021/07/04 07:49:17;;;;;;;4.00;1.42;;;17.90;99.90;;;;;;5044293;28;20034;-77
2021/07/04 07:51:45;;;;;;;3.47;1.10;;;18.00;99.90;;;;;;5004489;28;20648;-78
2021/07/04 07:54:10;;;;;;;2.25;1.00;;;18.10;99.90;;;;;;5004597;28;20026;-77
2021/07/04 07:56:36;;;;;;;3.80;1.10;;;18.20;99.90;;;;;;5007639;28;20084;-77
2021/07/04 07:59:02;;;;;;;2.28;1.38;;;18.10;99.90;;;;;;5004593;28;20634;-77
2021/07/04 08:01:27;;;;;;;2.53;0.90;;;18.10;99.90;;;;;;5002895;28;20034;-78
2021/07/04 08:03:53;;;;;;;3.13;1.25;;;18.10;99.90;;;;;;5007553;28;20076;-78
2021/07/04 08:06:19;;;;;;;5.18;1.55;;;18.30;99.90;;;;;;5005369;28;20399;-77
2021/07/04 08:08:44;;;;;;;3.85;1.25;;;18.20;99.90;;;;;;5008141;28;20038;-77
2021/07/04 08:11:10;;;;;;;3.30;1.30;;;18.20;99.90;;;;;;5005616;28;20037;-77
2021/07/04 08:13:36;;;;;;;6.50;1.13;;;18.10;99.90;;;;;;5008960;28;20492;-77
2021/07/04 08:16:02;;;;;;;5.18;1.63;;;17.90;99.90;;;;;;5006017;28;20832;-77
2021/07/04 08:18:28;;;;;;;4.00;1.10;;;17.90;99.90;;;;;;5001751;28;20034;-77
2021/07/04 08:20:54;;;;;;;6.75;1.25;;;17.80;99.90;;;;;;4991486;28;20441;-77
2021/07/04 08:23:20;;;;;;;2.92;0.90;;;18.00;99.90;;;;;;4997852;28;20036;-77
2021/07/04 08:25:46;;;;;;;3.58;1.10;;;17.90;99.90;;;;;;4996040;28;20108;-77
2021/07/04 08:28:12;;;;;;;1.33;0.90;;;17.90;99.90;;;;;;4992517;28;20127;-77
2021/07/04 08:30:38;;;;;;;2.17;1.02;;;18.10;99.90;;;;;;5004788;28;20440;-77
2021/07/04 08:33:04;;;;;;;4.68;1.00;;;18.10;99.90;;;;;;5013465;28;20107;-78
2021/07/04 08:35:30;;;;;;;3.28;1.10;;;18.30;99.90;;;;;;5040595;28;20566;-77
2021/07/04 08:37:55;;;;;;;2.33;1.00;;;18.40;99.90;;;;;;5001149;28;20050;-77
2021/07/04 08:40:21;;;;;;;4.82;1.23;;;18.40;99.90;;;;;;5007244;28;20033;-77
2021/07/04 08:42:47;;;;;;;2.63;0.90;;;18.30;99.90;;;;;;4995387;28;20599;-77
2021/07/04 08:45:13;;;;;;;3.13;0.80;;;18.30;99.90;;;;;;4995397;28;20026;-77
2021/07/04 08:47:38;;;;;;;2.42;0.80;;;18.40;99.90;;;;;;5005945;28;20037;-78
2021/07/04 08:50:05;;;;;;;5.47;1.50;;;18.40;99.90;;;;;;5019991;28;20523;-77
2021/07/04 08:52:32;;;;;;;4.65;1.10;;;18.40;99.90;;;;;;5010222;28;20160;-77
2021/07/04 08:54:58;;;;;;;3.75;1.08;;;18.40;99.90;;;;;;5010849;28;20436;-78
2021/07/04 08:57:23;;;;;;;8.10;1.30;;;18.40;99.90;;;;;;5006738;28;20133;-77
2021/07/04 08:59:49;;;;;;;3.53;1.17;;;18.40;99.90;;;;;;5013748;28;20036;-78
2021/07/04 09:02:37;;;;;;;3.92;1.30;;;18.40;99.90;;;;;;5014936;28;20043;-77
2021/07/04 09:05:12;;;;;;;4.57;1.45;;;18.20;99.90;;;;;;5042869;28;20037;-78
2021/07/04 09:07:39;;;;;;;4.25;1.08;;;18.30;99.90;;;;;;5010777;28;20076;-77
2021/07/04 09:10:11;;;;;;;5.25;1.20;;;18.40;99.90;;;;;;5011997;28;20550;-77
2021/07/04 09:12:45;;;;;;;5.93;1.33;;;18.40;99.90;;;;;;5002302;28;20042;-77
2021/07/04 09:15:23;;;;;;;3.13;1.40;;;18.30;99.90;;;;;;5005172;28;20022;-77
2021/07/04 09:17:51;;;;;;;3.90;1.10;;;18.50;99.90;;;;;;5001068;28;20121;-77
2021/07/04 09:20:19;;;;;;;3.03;1.00;;;18.40;99.90;;;;;;5020462;28;20141;-77
2021/07/04 09:22:50;;;;;;;4.20;1.00;;;18.30;99.90;;;;;;5021834;28;20034;-77
2021/07/04 09:25:25;;;;;;;3.03;1.02;;;18.30;99.90;;;;;;5023149;28;20631;-77
2021/07/04 09:28:06;;;;;;;3.88;1.20;;;18.30;99.90;;;;;;5005994;28;20511;-77
2021/07/04 09:30:35;;;;;;;3.30;1.00;;;18.30;99.90;;;;;;5002862;28;20037;-77
2021/07/04 09:33:31;;;;;;;4.18;1.10;;;18.20;99.90;;;;;;5011308;28;20091;-77
2021/07/04 09:36:06;;;;;;;4.63;0.95;;;18.40;99.90;;;;;;5002032;28;20030;-77
2021/07/04 09:38:35;;;;;;;4.75;1.00;;;18.50;99.90;;;;;;5010716;28;20037;-77
2021/07/04 09:41:03;;;;;;;2.67;0.93;;;18.40;99.90;;;;;;5005059;28;20124;-77
2021/07/04 09:43:31;;;;;;;2.00;0.85;;;18.40;99.90;;;;;;5010602;28;20034;-78
2021/07/04 09:45:59;;;;;;;3.50;0.90;;;18.40;99.90;;;;;;5006009;28;20105;-77
2021/07/04 09:48:32;;;;;;;4.10;1.20;;;18.40;99.90;;;;;;5012027;28;20890;-78
2021/07/04 09:51:00;;;;;;;4.70;1.15;;;18.50;99.90;;;;;;5001578;28;20026;-77
2021/07/04 09:53:35;;;;;;;2.53;1.23;;;18.60;99.90;;;;;;5011005;28;20045;-77
2021/07/04 09:56:10;;;;;;;7.63;1.70;;;18.60;99.90;;;;;;5021679;28;20040;-77
2021/07/04 09:58:37;;;;;;;4.60;1.30;;;18.60;99.90;;;;;;5011130;28;20216;-77
2021/07/04 10:01:03;;;;;;;5.13;1.10;;;18.60;99.90;;;;;;5007546;28;20037;-77
2021/07/04 10:03:29;;;;;;;3.47;1.48;;;18.50;99.90;;;;;;5019797;28;20041;-77
2021/07/04 10:05:54;;;;;;;4.70;1.30;;;18.30;99.90;;;;;;5011851;28;20411;-77
2021/07/04 10:08:26;;;;;;;4.57;1.27;;;18.40;99.90;;;;;;5018524;28;20033;-77
2021/07/04 10:10:54;;;;;;;3.67;1.23;;;18.50;99.90;;;;;;5006817;28;20034;-78
2021/07/04 10:13:21;;;;;;;5.22;1.58;;;18.60;99.90;;;;;;5014005;28;20307;-77
2021/07/04 10:15:47;;;;;;;6.20;1.67;;;18.40;99.90;;;;;;5008231;28;20555;-77
2021/07/04 10:18:13;;;;;;;4.53;1.63;;;18.30;99.90;;;;;;5008272;28;20052;-77
2021/07/04 10:20:40;;;;;;;9.07;2.10;;;18.20;99.90;;;;;;5007467;28;20029;-77
2021/07/04 10:23:13;;;;;;;3.17;1.38;;;18.20;99.90;;;;;;5016333;28;20480;-77
2021/07/04 10:25:39;;;;;;;3.13;1.20;;;18.20;99.90;;;;;;5006279;28;20048;-77
2021/07/04 10:28:05;;;;;;;6.22;1.42;;;18.10;99.90;;;;;;5017471;28;20168;-77
2021/07/04 10:30:32;;;;;;;3.35;1.40;;;18.10;99.90;;;;;;5010961;28;20065;-77
2021/07/04 10:33:20;;;;;;;3.00;1.20;;;18.10;99.90;;;;;;5042560;28;20112;-77
2021/07/04 10:35:50;;;;;;;2.08;0.90;;;18.10;99.90;;;;;;5008502;28;20036;-77
2021/07/04 10:38:16;;;;;;;3.65;1.38;;;18.10;99.90;;;;;;5003987;28;20042;-77
2021/07/04 10:40:42;;;;;;;3.22;1.45;;;18.10;99.90;;;;;;5009418;28;20036;-77
2021/07/04 10:43:10;;;;;;;5.38;2.42;;;18.00;99.90;;;;;;5004844;28;20038;-77
2021/07/04 10:45:41;;;;;;;4.43;2.20;;;18.00;99.90;;;;;;5009392;28;20816;-77
2021/07/04 10:48:23;;;;;;;6.93;3.58;;;18.00;99.90;;;;;;5013105;28;20041;-77
2021/07/04 10:51:10;;;;;;;12.18;3.65;;;18.00;99.90;;;;;;5038857;28;20042;-76
2021/07/04 10:53:46;;;;;;;4.22;2.45;;;18.00;99.90;;;;;;5004849;28;20052;-77
2021/07/04 10:56:41;;;;;;;6.07;1.70;;;18.00;99.90;;;;;;5008925;28;20487;-77
2021/07/04 10:59:12;;;;;;;6.22;1.40;;;17.90;99.90;;;;;;5004718;28;20463;-77
2021/07/04 11:01:52;;;;;;;4.47;1.55;;;17.80;99.90;;;;;;5000646;28;20568;-77
2021/07/04 11:04:33;;;;;;;4.40;1.30;;;17.80;99.90;;;;;;4998792;28;20067;-77
2021/07/04 11:07:03;;;;;;;5.10;1.40;;;17.80;99.90;;;;;;5008881;28;20101;-77
2021/07/04 11:09:50;;;;;;;3.97;1.52;;;17.80;99.90;;;;;;5003014;28;20026;-77
2021/07/04 11:12:29;;;;;;;11.77;1.25;;;17.90;99.90;;;;;;5003473;28;20069;-78
2021/07/04 11:15:13;;;;;;;3.15;1.10;;;17.80;99.90;;;;;;4997678;28;20026;-77
2021/07/04 11:17:57;;;;;;;3.53;1.55;;;18.00;99.90;;;;;;5001984;28;20037;-77
2021/07/04 11:20:40;;;;;;;4.40;1.80;;;18.10;99.90;;;;;;5002213;28;20033;-77
2021/07/04 11:23:07;;;;;;;4.82;1.67;;;18.20;99.90;;;;;;4996115;28;20104;-77
2021/07/04 11:25:44;;;;;;;6.00;1.67;;;18.30;99.90;;;;;;4999660;28;20031;-77
2021/07/04 11:28:15;;;;;;;6.05;1.98;;;18.40;99.90;;;;;;4997351;28;20030;-78
2021/07/04 11:30:50;;;;;;;5.10;1.60;;;18.40;99.90;;;;;;5001311;28;20030;-77
2021/07/04 11:33:24;;;;;;;4.78;1.80;;;18.40;99.90;;;;;;5000819;28;20079;-78
2021/07/04 11:35:49;;;;;;;4.28;1.63;;;18.50;99.90;;;;;;5000652;28;20126;-78
2021/07/04 11:38:20;;;;;;;3.72;1.55;;;18.60;99.90;;;;;;4995729;28;20133;-78
2021/07/04 11:40:47;;;;;;;4.22;1.42;;;18.60;99.90;;;;;;4995665;28;20057;-78
2021/07/04 11:43:15;;;;;;;4.38;1.75;;;18.70;99.90;;;;;;4997668;28;20411;-77
2021/07/04 11:46:11;;;;;;;3.72;1.38;;;18.70;99.90;;;;;;5002800;28;20072;-77
2021/07/04 11:48:46;;;;;;;2.22;1.30;;;18.80;99.90;;;;;;5013654;28;20052;-78
2021/07/04 11:51:28;;;;;;;3.28;1.00;;;18.90;99.90;;;;;;4999760;28;20133;-77
2021/07/04 11:53:58;;;;;;;2.15;0.95;;;18.90;99.90;;;;;;4999879;28;20056;-78
2021/07/04 11:56:24;;;;;;;6.72;1.50;;;19.00;99.90;;;;;;4994882;28;20066;-78
2021/07/04 11:58:50;;;;;;;4.65;1.35;;;19.00;99.90;;;;;;5000957;28;20057;-77
2021/07/04 12:01:23;;;;;;;4.38;1.85;;;19.00;99.90;;;;;;5001194;28;20033;-78
2021/07/04 12:03:54;;;;;;;4.57;1.40;;;19.10;99.90;;;;;;4999764;28;20118;-77
2021/07/04 12:06:23;;;;;;;3.88;1.20;;;19.10;99.90;;;;;;4998736;28;20035;-77
2021/07/04 12:08:54;;;;;;;3.70;1.00;;;19.10;99.90;;;;;;5002069;28;20068;-77
2021/07/04 12:11:50;;;;;;;3.40;1.00;;;19.20;99.90;;;;;;5000696;28;20058;-77
2021/07/04 12:14:32;;;;;;;2.88;1.00;;;19.10;99.90;;;;;;5007130;28;20045;-77
2021/07/04 12:17:22;;;;;;;3.08;1.30;;;19.10;99.90;;;;;;5008023;28;20447;-77
2021/07/04 12:19:55;;;;;;;1.98;0.90;;;19.10;99.90;;;;;;5005231;28;20045;-77
2021/07/04 12:22:24;;;;;;;3.80;0.98;;;19.10;99.90;;;;;;5001757;28;20026;-77
2021/07/04 12:24:50;;;;;;;2.45;1.10;;;19.10;99.90;;;;;;5002375;28;20026;-77
2021/07/04 12:27:16;;;;;;;4.35;1.20;;;19.00;99.90;;;;;;5005838;28;20033;-78
2021/07/04 12:30:07;;;;;;;2.47;0.98;;;19.00;99.90;;;;;;5001491;28;20222;-77
2021/07/04 12:32:39;;;;;;;5.93;1.27;;;18.80;99.90;;;;;;5001774;28;20042;-77
2021/07/04 12:35:07;;;;;;;3.78;1.30;;;18.70;99.90;;;;;;5006573;28;20663;-77
2021/07/04 12:37:34;;;;;;;6.68;1.60;;;18.80;99.90;;;;;;5000795;28;20434;-78
2021/07/04 12:40:19;;;;;;;4.18;1.35;;;18.70;99.90;;;;;;5004015;28;20041;-77
2021/07/04 12:42:44;;;;;;;5.35;1.27;;;18.60;99.90;;;;;;5009755;28;20045;-77
2021/07/04 12:45:20;;;;;;;7.88;3.22;;;18.50;99.90;;;;;;5011438;28;20584;-76
2021/07/04 12:48:02;;;;;;;8.65;2.10;;;18.50;99.90;;;;;;5003276;28;20033;-76
2021/07/04 12:50:43;;;;;;;4.78;1.80;;;18.60;99.90;;;;;;5008186;28;20488;-77